createdAt,value
2022-08-24T00:05:34.889Z,100231.16
2022-08-24T00:15:42.026Z,100227.25
2022-08-24T00:25:48.419Z,100265.50
2022-08-24T00:35:54.740Z,100275.25
2022-08-24T00:46:18.195Z,100275.69
2022-08-24T00:56:34.240Z,100260.69
2022-08-24T01:06:40.682Z,100245.44
2022-08-24T01:17:05.361Z,100245.84
2022-08-24T01:27:11.863Z,100251.47
2022-08-24T01:37:18.594Z,100249.25
2022-08-24T01:47:24.954Z,100239.78
2022-08-24T01:57:31.447Z,100220.19
2022-08-24T02:07:37.776Z,100213.19
2022-08-24T02:17:43.627Z,100220.75
2022-08-24T02:27:49.915Z,100212.72
2022-08-24T02:37:56.634Z,100211.78
2022-08-24T02:48:03.008Z,100214.16
2022-08-24T02:58:10.601Z,100226.22
2022-08-24T03:08:16.926Z,100230.19
2022-08-24T03:18:24.792Z,100222.44
2022-08-24T03:28:31.242Z,100223.37
2022-08-24T03:38:37.889Z,100218.66
2022-08-24T03:48:45.538Z,100222.63
2022-08-24T03:58:53.045Z,100231.78
2022-08-24T04:08:59.377Z,100223.72
2022-08-24T04:19:06.051Z,100208.78
2022-08-24T04:29:13.602Z,100200.47
2022-08-24T04:39:19.948Z,100203.22
2022-08-24T04:49:26.857Z,100208.78
2022-08-24T04:59:33.184Z,100213.03
2022-08-24T05:09:39.468Z,100208.69
2022-08-24T05:19:45.841Z,100207.88
2022-08-24T05:29:54.811Z,100204.16
2022-08-24T05:40:03.317Z,100206.22
2022-08-24T05:50:10.068Z,100216.03
2022-08-24T06:00:16.779Z,100205.28
2022-08-24T06:10:38.263Z,100324.03
2022-08-24T06:20:44.722Z,100720.97
2022-08-24T06:30:52.631Z,101087.16
2022-08-24T06:40:59.089Z,101349.22
2022-08-24T06:51:11.593Z,101492.06
2022-08-24T07:01:24.545Z,101571.34
2022-08-24T07:11:31.079Z,101509.06
2022-08-24T07:21:38.136Z,101502.91
2022-08-24T07:31:45.135Z,101278.19
2022-08-24T07:42:11.666Z,101263.38
2022-08-24T07:52:17.883Z,101213.91
2022-08-24T08:02:25.262Z,101182.44
2022-08-24T08:12:36.459Z,101100.06
2022-08-24T08:23:01.348Z,101026.19
2022-08-24T08:33:08.291Z,100927.53
2022-08-24T08:43:45.341Z,100872.19
2022-08-24T08:54:29.204Z,100817.34
2022-08-24T09:05:10.578Z,100754.97
2022-08-24T09:15:57.605Z,100721.72
2022-08-24T09:26:28.137Z,100677.84
2022-08-24T09:36:46.503Z,100646.59
2022-08-24T09:47:11.501Z,100614.69
2022-08-24T09:57:50.409Z,100564.25
2022-08-24T10:08:23.058Z,100522.34
2022-08-24T10:18:44.142Z,100487.19
2022-08-24T10:28:50.479Z,100458.38
2022-08-24T10:39:37.200Z,100424.91
2022-08-24T10:50:03.643Z,100432.28
2022-08-24T11:00:23.337Z,100410.09
2022-08-24T11:10:33.827Z,100402.16
2022-08-24T11:20:45.780Z,100381.91
2022-08-24T11:30:52.127Z,100348.03
2022-08-24T11:41:07.656Z,100337.75
2022-08-24T11:51:23.224Z,100339.13
2022-08-24T12:01:49.475Z,100313.91
2022-08-24T12:12:05.492Z,100279.22
2022-08-24T12:22:13.820Z,100223.03
2022-08-24T12:32:28.308Z,100156.88
2022-08-24T12:42:52.155Z,100134.03
2022-08-24T12:53:20.063Z,100126.59
2022-08-24T13:03:33.366Z,100089.09
2022-08-24T13:14:07.527Z,100074.97
2022-08-24T13:24:33.261Z,100053.31
2022-08-24T13:34:43.416Z,100046.19
2022-08-24T13:45:24.214Z,100013.19
2022-08-24T13:55:39.310Z,100004.25
2022-08-24T14:05:58.328Z,99951.16
2022-08-24T14:16:44.708Z,99935.75
2022-08-24T14:27:03.661Z,99911.22
2022-08-24T14:37:16.013Z,99885.56
2022-08-24T14:47:32.279Z,99873.53
2022-08-24T14:58:16.850Z,99868.31
2022-08-24T15:08:33.944Z,99859.66
2022-08-24T15:19:02.452Z,99856.22
2022-08-24T15:29:17.865Z,99872.88
2022-08-24T15:39:28.377Z,99850.63
2022-08-24T15:49:40.783Z,99831.03
2022-08-24T15:59:49.698Z,99824.56
2022-08-24T16:10:10.542Z,99841.22
2022-08-24T16:20:26.137Z,99850.09
2022-08-24T16:30:53.808Z,99847.25
2022-08-24T16:41:02.523Z,99843.22
2022-08-24T16:51:09.344Z,99839.78
2022-08-24T17:01:16.958Z,99839.19
2022-08-24T17:11:23.460Z,99835.41
2022-08-24T17:21:29.944Z,99827.38
2022-08-24T17:31:37.007Z,99838.16
2022-08-24T17:41:43.395Z,99817.94
2022-08-24T17:51:50.831Z,99810.22
2022-08-24T18:02:01.581Z,99814.91
2022-08-24T18:12:09.674Z,99815.06
2022-08-24T18:22:17.024Z,99831.66
2022-08-24T18:32:26.804Z,99848.00
2022-08-24T18:42:38.020Z,99845.91
2022-08-24T18:52:44.360Z,99841.25
2022-08-24T19:02:51.544Z,99841.69
2022-08-24T19:13:01.064Z,99843.38
2022-08-24T19:23:15.169Z,99835.50
2022-08-24T19:33:26.079Z,99839.25
2022-08-24T19:43:32.866Z,99839.03
2022-08-24T19:53:39.899Z,99827.31
2022-08-24T20:03:46.285Z,99841.78
2022-08-24T20:13:52.703Z,99839.47
2022-08-24T20:24:03.051Z,99833.91
2022-08-24T20:34:09.395Z,99839.66
2022-08-24T20:44:15.889Z,99835.44
2022-08-24T20:54:22.189Z,99837.75
2022-08-24T21:04:28.789Z,99843.03
2022-08-24T21:14:35.577Z,99844.88
2022-08-24T21:24:41.955Z,99845.16
2022-08-24T21:34:48.391Z,99847.72
2022-08-24T21:44:54.709Z,99844.22
2022-08-24T21:55:01.060Z,99834.19
2022-08-24T22:05:07.877Z,99814.56
2022-08-24T22:15:17.174Z,99802.63
2022-08-24T22:25:30.898Z,99815.31
2022-08-24T22:35:45.128Z,99809.28
2022-08-24T22:45:52.304Z,99811.19
2022-08-24T22:56:00.706Z,99803.69
2022-08-24T23:06:07.338Z,99790.16
2022-08-24T23:16:14.572Z,99792.12
2022-08-24T23:26:21.647Z,99788.84
2022-08-24T23:36:29.354Z,99787.09
2022-08-24T23:46:35.727Z,99779.69
2022-08-24T23:56:45.065Z,99779.69
